createdAt,value
2023-04-29T00:00:24.430Z,11.0
2023-04-29T00:12:24.421Z,10.9
2023-04-29T00:24:24.450Z,11.0
2023-04-29T00:36:24.492Z,11.0
2023-04-29T00:48:24.422Z,10.8
2023-04-29T01:00:24.454Z,10.7
2023-04-29T01:12:24.414Z,10.7
2023-04-29T01:24:24.490Z,10.6
2023-04-29T01:36:24.430Z,10.6
2023-04-29T01:48:24.428Z,10.5
2023-04-29T02:00:24.421Z,10.5
2023-04-29T02:12:24.592Z,10.4
2023-04-29T02:24:24.448Z,10.2
2023-04-29T02:36:24.433Z,10.1
2023-04-29T02:48:24.506Z,9.9
2023-04-29T03:00:24.559Z,9.8
2023-04-29T03:12:24.434Z,9.7
2023-04-29T03:24:24.421Z,9.5
2023-04-29T03:36:24.508Z,9.4
2023-04-29T03:48:24.549Z,9.3
2023-04-29T04:00:24.517Z,9.2
2023-04-29T04:12:24.429Z,9.0
2023-04-29T04:24:24.586Z,8.9
2023-04-29T04:36:24.424Z,9.0
2023-04-29T04:48:24.513Z,8.9
2023-04-29T05:00:24.485Z,8.8
2023-04-29T05:12:24.463Z,8.7
2023-04-29T05:24:24.420Z,8.6
2023-04-29T05:36:24.442Z,8.7
2023-04-29T05:48:24.416Z,8.6
2023-04-29T06:00:24.432Z,8.6
2023-04-29T06:12:24.441Z,8.6
2023-04-29T06:24:24.421Z,8.6
2023-04-29T06:36:24.940Z,8.4
2023-04-29T06:48:24.425Z,8.4
2023-04-29T07:00:24.554Z,8.3
2023-04-29T07:12:24.482Z,8.4
2023-04-29T07:24:24.443Z,8.4
2023-04-29T07:36:24.426Z,8.5
2023-04-29T07:48:24.533Z,8.7
2023-04-29T08:00:24.484Z,8.9
2023-04-29T08:12:24.507Z,9.0
2023-04-29T08:24:24.534Z,9.2
2023-04-29T08:36:24.567Z,9.0
2023-04-29T08:48:24.592Z,8.9
2023-04-29T09:00:24.443Z,9.0
2023-04-29T09:12:24.541Z,9.2
2023-04-29T09:24:24.484Z,9.5
2023-04-29T09:36:24.454Z,9.6
2023-04-29T09:48:24.440Z,9.8
2023-04-29T10:00:24.427Z,9.6
2023-04-29T10:12:24.536Z,9.3
2023-04-29T10:24:24.450Z,9.6
2023-04-29T10:36:24.431Z,10.1
2023-04-29T10:48:24.430Z,10.1
2023-04-29T11:00:24.426Z,10.1
2023-04-29T11:12:24.438Z,10.2
2023-04-29T11:24:24.427Z,10.3
2023-04-29T11:36:24.545Z,10.1
2023-04-29T11:48:24.451Z,10.4
2023-04-29T12:00:24.510Z,10.5
2023-04-29T12:12:24.879Z,10.2
2023-04-29T12:24:24.519Z,9.4
2023-04-29T12:36:24.435Z,9.4
2023-04-29T12:48:30.030Z,9.0
2023-04-29T13:00:24.414Z,9.0
2023-04-29T13:12:24.919Z,9.1
2023-04-29T13:24:24.451Z,9.2
2023-04-29T13:36:24.483Z,9.4
2023-04-29T14:12:24.417Z,9.6
2023-04-29T14:24:24.427Z,9.5
2023-04-29T14:36:24.459Z,9.4
2023-04-29T14:48:24.538Z,9.5
2023-04-29T15:00:24.437Z,9.5
2023-04-29T15:12:24.513Z,9.7
2023-04-29T15:24:24.416Z,10.1
2023-04-29T15:36:24.465Z,10.4
2023-04-29T15:48:24.515Z,10.5
2023-04-29T16:00:24.536Z,10.6
2023-04-29T16:12:24.431Z,10.4
2023-04-29T16:24:24.538Z,10.3
2023-04-29T16:36:24.493Z,10.2
2023-04-29T16:48:24.427Z,10.2
2023-04-29T17:00:24.442Z,10.2
2023-04-29T17:12:24.431Z,10.2
2023-04-29T17:24:24.532Z,10.2
2023-04-29T17:36:24.554Z,10.1
2023-04-29T17:48:24.549Z,10.0
2023-04-29T18:00:24.577Z,10.1
2023-04-29T18:12:24.424Z,10.0
2023-04-29T18:24:24.441Z,9.9
2023-04-29T18:36:24.436Z,9.9
2023-04-29T18:48:24.454Z,9.8
2023-04-29T19:00:24.443Z,9.7
2023-04-29T19:12:24.445Z,9.6
2023-04-29T19:24:24.436Z,9.6
2023-04-29T19:36:24.511Z,9.6
2023-04-29T19:48:24.529Z,9.5
2023-04-29T20:00:24.551Z,9.6
2023-04-29T20:12:24.508Z,9.5
2023-04-29T20:24:24.520Z,9.3
2023-04-29T20:36:24.529Z,9.3
2023-04-29T20:48:24.518Z,9.0
2023-04-29T21:00:24.506Z,9.1
2023-04-29T21:12:24.556Z,9.1
2023-04-29T21:24:24.536Z,9.1
2023-04-29T21:36:24.534Z,8.9
2023-04-29T21:48:24.489Z,8.8
2023-04-29T22:00:24.526Z,8.6
2023-04-29T22:12:24.543Z,8.4
2023-04-29T22:24:24.422Z,8.3
2023-04-29T22:36:24.539Z,8.4
2023-04-29T22:48:27.257Z,8.6
2023-04-29T23:00:24.507Z,8.6
2023-04-29T23:12:24.461Z,8.9
2023-04-29T23:24:24.419Z,8.9
2023-04-29T23:36:24.498Z,8.8
2023-04-29T23:48:24.434Z,8.8
